Time;durP1;ratioP1;P1;durP2;ratioP2;P2;SDS_P1;SDS_P2;PMS_P1;PMS_P2;Temp;Humidity;BMP_temperature;BMP_pressure;BME280_temperature;BME280_humidity;BME280_pressure;Samples;Min_cycle;Max_cycle;Signal;HPM_P1;HPM_P2
2022/07/07 00:01:29;;;;;;;3.60;1.35;;;;;;;;;;5052904;28;20236;-52
2022/07/07 00:03:55;;;;;;;1.50;0.95;;;;;;;;;;5051496;28;20336;-51
2022/07/07 00:06:22;;;;;;;3.40;0.85;;;;;;;;;;5041354;28;20757;-54
2022/07/07 00:08:48;;;;;;;3.13;1.23;;;;;;;;;;5037859;28;20315;-55
2022/07/07 00:11:15;;;;;;;1.40;0.77;;;;;;;;;;5049493;28;20236;-55
2022/07/07 00:13:41;;;;;;;1.63;0.80;;;;;;;;;;5054198;28;20240;-52
2022/07/07 00:16:08;;;;;;;0.95;0.70;;;;;;;;;;5045642;28;20296;-59
2022/07/07 00:18:35;;;;;;;2.42;1.02;;;;;;;;;;5055917;28;20745;-52
2022/07/07 00:21:02;;;;;;;1.40;1.17;;;;;;;;;;5047633;28;20230;-52
2022/07/07 00:23:28;;;;;;;1.35;0.77;;;;;;;;;;5049189;28;20236;-51
2022/07/07 00:25:54;;;;;;;1.08;0.68;;;;;;;;;;5049138;28;20231;-51
2022/07/07 00:28:21;;;;;;;2.00;1.20;;;;;;;;;;5052942;28;20247;-51
2022/07/07 00:30:47;;;;;;;2.00;0.82;;;;;;;;;;5051354;28;20338;-52
2022/07/07 00:33:14;;;;;;;1.67;0.95;;;;;;;;;;5038840;28;20272;-59
2022/07/07 00:35:42;;;;;;;1.48;0.70;;;;;;;;;;5035706;28;20263;-50
2022/07/07 00:38:10;;;;;;;4.03;1.10;;;;;;;;;;5015215;28;20734;-53
2022/07/07 00:40:36;;;;;;;1.05;0.63;;;;;;;;;;5024531;28;20240;-50
2022/07/07 00:43:03;;;;;;;4.40;0.70;;;;;;;;;;5031858;28;20322;-52
2022/07/07 00:45:30;;;;;;;7.35;1.10;;;;;;;;;;5036264;28;20236;-52
2022/07/07 00:47:56;;;;;;;2.17;1.00;;;;;;;;;;5043463;28;20243;-53
2022/07/07 00:50:22;;;;;;;1.20;0.52;;;;;;;;;;5037790;28;20498;-52
2022/07/07 00:52:50;;;;;;;4.88;1.55;;;;;;;;;;5037037;28;20236;-52
2022/07/07 00:55:16;;;;;;;1.63;0.90;;;;;;;;;;5038914;28;20232;-51
2022/07/07 00:57:43;;;;;;;2.72;1.05;;;;;;;;;;5026463;28;20714;-52
2022/07/07 01:00:11;;;;;;;0.90;0.57;;;;;;;;;;5027767;28;20258;-52
2022/07/07 01:02:38;;;;;;;1.48;0.90;;;;;;;;;;5044547;28;20240;-53
2022/07/07 01:05:05;;;;;;;0.82;0.50;;;;;;;;;;5039184;28;20582;-51
2022/07/07 01:07:32;;;;;;;1.15;0.70;;;;;;;;;;5040366;28;20239;-50
2022/07/07 01:10:00;;;;;;;2.53;0.70;;;;;;;;;;5036361;28;20330;-50
2022/07/07 01:12:27;;;;;;;0.73;0.73;;;;;;;;;;5037294;28;20227;-52
2022/07/07 01:14:53;;;;;;;2.50;0.90;;;;;;;;;;5038912;28;20714;-50
2022/07/07 01:17:20;;;;;;;0.50;0.50;;;;;;;;;;5042655;28;20254;-50
2022/07/07 01:19:46;;;;;;;3.33;0.95;;;;;;;;;;5038756;28;20236;-53
2022/07/07 01:22:13;;;;;;;0.95;0.77;;;;;;;;;;5036255;28;20259;-52
2022/07/07 01:24:41;;;;;;;1.75;1.15;;;;;;;;;;5030976;28;20241;-51
2022/07/07 01:27:08;;;;;;;1.13;0.93;;;;;;;;;;5032917;28;20723;-50
2022/07/07 01:29:35;;;;;;;3.20;1.25;;;;;;;;;;5025179;28;20228;-51
2022/07/07 01:32:02;;;;;;;0.93;0.70;;;;;;;;;;5042242;28;20730;-52
2022/07/07 01:34:28;;;;;;;2.15;1.10;;;;;;;;;;5044790;28;20247;-54
2022/07/07 01:36:55;;;;;;;1.33;0.70;;;;;;;;;;5040012;28;20232;-51
2022/07/07 01:39:21;;;;;;;3.05;0.70;;;;;;;;;;5027122;28;20239;-53
2022/07/07 01:41:49;;;;;;;0.88;0.70;;;;;;;;;;5022562;28;20240;-52
2022/07/07 01:44:15;;;;;;;1.15;0.85;;;;;;;;;;5042310;28;20249;-51
2022/07/07 01:46:41;;;;;;;2.47;1.05;;;;;;;;;;5042143;28;20331;-52
2022/07/07 01:49:08;;;;;;;0.85;0.85;;;;;;;;;;5043060;28;20236;-51
2022/07/07 01:51:34;;;;;;;1.73;0.95;;;;;;;;;;5041174;28;20238;-49
2022/07/07 01:54:00;;;;;;;2.30;1.00;;;;;;;;;;5044780;28;20243;-51
2022/07/07 01:56:27;;;;;;;2.28;1.00;;;;;;;;;;5040200;28;20313;-51
2022/07/07 01:58:54;;;;;;;3.90;0.80;;;;;;;;;;5048844;28;20232;-55
2022/07/07 02:01:21;;;;;;;1.23;1.00;;;;;;;;;;5050119;28;20244;-53
2022/07/07 02:03:47;;;;;;;1.85;0.90;;;;;;;;;;5044767;28;20323;-50
2022/07/07 02:06:14;;;;;;;2.83;1.02;;;;;;;;;;5041100;28;20225;-52
2022/07/07 02:08:40;;;;;;;2.65;1.60;;;;;;;;;;5045225;28;20798;-53
2022/07/07 02:11:15;;;;;;;3.08;1.25;;;;;;;;;;5036636;28;20232;-53
2022/07/07 02:13:42;;;;;;;6.60;1.15;;;;;;;;;;5034844;28;20236;-56
2022/07/07 02:16:11;;;;;;;2.92;1.17;;;;;;;;;;5047105;28;20244;-53
2022/07/07 02:18:38;;;;;;;3.40;1.23;;;;;;;;;;5046077;28;20290;-51
2022/07/07 02:21:05;;;;;;;2.20;1.52;;;;;;;;;;5052882;28;20743;-53
2022/07/07 02:23:32;;;;;;;6.05;1.20;;;;;;;;;;5045731;28;20243;-54
2022/07/07 02:25:58;;;;;;;1.70;1.35;;;;;;;;;;5045570;28;20746;-53
2022/07/07 02:28:26;;;;;;;1.88;1.30;;;;;;;;;;5042809;28;20607;-52
2022/07/07 02:30:53;;;;;;;4.63;1.40;;;;;;;;;;5026741;28;20314;-60
2022/07/07 02:33:21;;;;;;;1.90;1.00;;;;;;;;;;5038559;28;20238;-53
2022/07/07 02:35:48;;;;;;;5.13;2.35;;;;;;;;;;5034719;28;20746;-52
2022/07/07 02:38:14;;;;;;;1.70;1.35;;;;;;;;;;5022891;28;20263;-54
2022/07/07 02:40:41;;;;;;;2.25;1.77;;;;;;;;;;5030708;28;20236;-52
2022/07/07 02:43:07;;;;;;;2.42;2.10;;;;;;;;;;5045598;28;20231;-52
2022/07/07 02:45:33;;;;;;;3.67;1.90;;;;;;;;;;5038738;28;20818;-53
2022/07/07 02:48:00;;;;;;;4.15;2.05;;;;;;;;;;5039497;28;20235;-52
2022/07/07 02:50:28;;;;;;;2.80;1.95;;;;;;;;;;5042684;28;20434;-54
2022/07/07 02:52:54;;;;;;;3.08;2.20;;;;;;;;;;5040620;28;20246;-51
2022/07/07 02:55:20;;;;;;;3.17;2.63;;;;;;;;;;5041919;28;20231;-52
2022/07/07 02:57:47;;;;;;;4.60;2.30;;;;;;;;;;5035154;28;20235;-60
2022/07/07 03:00:14;;;;;;;2.30;1.92;;;;;;;;;;5025726;28;20229;-52
2022/07/07 03:02:40;;;;;;;3.90;2.60;;;;;;;;;;5042498;28;20236;-52
2022/07/07 03:05:07;;;;;;;4.20;2.38;;;;;;;;;;5037470;28;20239;-53
2022/07/07 03:07:35;;;;;;;2.50;2.30;;;;;;;;;;5044358;28;20228;-53
2022/07/07 03:10:01;;;;;;;4.35;2.40;;;;;;;;;;5037239;28;20235;-51
2022/07/07 03:12:27;;;;;;;3.70;2.33;;;;;;;;;;5038342;28;20232;-53
2022/07/07 03:14:53;;;;;;;5.93;2.40;;;;;;;;;;5041168;28;20246;-52
2022/07/07 03:17:20;;;;;;;4.60;2.88;;;;;;;;;;5039001;28;20236;-52
2022/07/07 03:19:46;;;;;;;3.58;2.10;;;;;;;;;;5041581;28;20240;-51
2022/07/07 03:22:13;;;;;;;5.35;2.65;;;;;;;;;;5026027;28;20232;-52
2022/07/07 03:24:40;;;;;;;3.78;1.98;;;;;;;;;;5038462;28;20248;-52
2022/07/07 03:27:07;;;;;;;3.78;3.00;;;;;;;;;;5041896;28;20312;-51
2022/07/07 03:29:33;;;;;;;2.63;2.42;;;;;;;;;;5045361;28;20255;-52
2022/07/07 03:31:59;;;;;;;3.80;3.50;;;;;;;;;;5050728;28;20307;-53
2022/07/07 03:34:26;;;;;;;4.63;3.38;;;;;;;;;;5045102;28;20241;-53
2022/07/07 03:36:53;;;;;;;2.95;2.33;;;;;;;;;;5048199;28;20236;-51
2022/07/07 03:39:19;;;;;;;5.65;2.97;;;;;;;;;;5040085;28;20312;-53
2022/07/07 03:41:47;;;;;;;4.70;2.60;;;;;;;;;;5043096;28;20266;-51
2022/07/07 03:44:13;;;;;;;3.28;2.08;;;;;;;;;;5046186;28;20234;-51
2022/07/07 03:46:40;;;;;;;3.63;2.47;;;;;;;;;;5043913;28;20259;-53
2022/07/07 03:49:07;;;;;;;5.65;2.83;;;;;;;;;;5044887;28;20243;-52
2022/07/07 03:51:34;;;;;;;3.28;2.15;;;;;;;;;;5040124;28;20257;-52
2022/07/07 03:54:00;;;;;;;3.97;3.05;;;;;;;;;;5046162;28;20736;-52
2022/07/07 03:56:26;;;;;;;2.45;2.25;;;;;;;;;;5045005;28;20235;-50
2022/07/07 03:58:54;;;;;;;5.20;2.80;;;;;;;;;;5037206;28;20231;-53
2022/07/07 04:01:20;;;;;;;4.75;2.50;;;;;;;;;;5045722;28;20315;-52
2022/07/07 04:03:47;;;;;;;4.97;3.10;;;;;;;;;;5043839;28;20237;-52
2022/07/07 04:06:13;;;;;;;5.15;2.70;;;;;;;;;;5037725;28;20220;-51
2022/07/07 04:08:40;;;;;;;3.07;2.87;;;;;;;;;;5045794;28;20236;-51
2022/07/07 04:11:06;;;;;;;4.07;2.45;;;;;;;;;;5049346;28;20259;-54
2022/07/07 04:13:33;;;;;;;3.72;3.33;;;;;;;;;;5034798;28;20243;-52
2022/07/07 04:16:01;;;;;;;3.35;3.05;;;;;;;;;;5039336;28;20235;-52
2022/07/07 04:18:27;;;;;;;3.25;2.95;;;;;;;;;;5028759;28;20240;-53
2022/07/07 04:20:53;;;;;;;3.22;2.92;;;;;;;;;;5029456;28;20317;-52
2022/07/07 04:23:20;;;;;;;6.07;3.22;;;;;;;;;;5027212;28;20239;-52
2022/07/07 04:25:46;;;;;;;5.23;3.20;;;;;;;;;;5024950;28;20228;-58
2022/07/07 04:28:12;;;;;;;4.60;3.60;;;;;;;;;;5024201;28;20243;-53
2022/07/07 04:30:39;;;;;;;4.57;3.05;;;;;;;;;;5020884;28;20322;-52
2022/07/07 04:33:07;;;;;;;5.93;4.13;;;;;;;;;;5026323;28;20232;-53
2022/07/07 04:35:33;;;;;;;4.70;3.73;;;;;;;;;;5038837;28;20244;-52
2022/07/07 04:37:59;;;;;;;4.20;3.80;;;;;;;;;;5047522;28;20232;-52
2022/07/07 04:40:26;;;;;;;4.20;3.67;;;;;;;;;;5030247;28;20235;-53
2022/07/07 04:42:52;;;;;;;5.00;4.47;;;;;;;;;;5048161;28;20713;-52
2022/07/07 04:45:18;;;;;;;5.10;3.83;;;;;;;;;;5047075;28;20232;-53
2022/07/07 04:47:45;;;;;;;4.23;3.83;;;;;;;;;;5043280;28;20232;-52
2022/07/07 04:50:13;;;;;;;7.37;4.67;;;;;;;;;;5035135;28;20319;-53
2022/07/07 04:52:40;;;;;;;4.67;4.13;;;;;;;;;;5036627;28;20232;-53
2022/07/07 04:55:07;;;;;;;3.83;3.53;;;;;;;;;;5037598;28;20601;-53
2022/07/07 04:57:34;;;;;;;5.10;3.90;;;;;;;;;;5041770;28;20231;-52
2022/07/07 05:00:00;;;;;;;6.33;4.33;;;;;;;;;;5040562;28;20290;-54
2022/07/07 05:02:26;;;;;;;8.27;4.57;;;;;;;;;;5028048;28;20232;-53
2022/07/07 05:04:54;;;;;;;5.37;3.97;;;;;;;;;;5025846;28;20245;-53
2022/07/07 05:07:22;;;;;;;4.43;4.03;;;;;;;;;;5020878;28;20232;-53
2022/07/07 05:09:48;;;;;;;5.23;4.37;;;;;;;;;;5021456;28;20240;-52
2022/07/07 05:12:14;;;;;;;4.50;4.07;;;;;;;;;;5030513;28;20323;-54
2022/07/07 05:14:41;;;;;;;3.50;3.30;;;;;;;;;;5034683;28;20236;-53
2022/07/07 05:17:07;;;;;;;4.95;4.38;;;;;;;;;;5023408;28;20239;-53
2022/07/07 05:19:34;;;;;;;4.50;4.03;;;;;;;;;;5023395;28;20294;-57
2022/07/07 05:22:00;;;;;;;6.70;4.20;;;;;;;;;;5036297;28;20228;-54
2022/07/07 05:24:28;;;;;;;6.23;4.37;;;;;;;;;;5040261;28;20244;-53
2022/07/07 05:26:54;;;;;;;4.33;3.93;;;;;;;;;;5039180;28;20250;-53
2022/07/07 05:29:20;;;;;;;4.60;4.20;;;;;;;;;;5043851;28;20231;-52
2022/07/07 05:31:47;;;;;;;5.33;4.13;;;;;;;;;;5046410;28;20243;-52
2022/07/07 05:34:13;;;;;;;4.57;4.20;;;;;;;;;;5050527;28;20236;-53
2022/07/07 05:36:39;;;;;;;4.70;4.30;;;;;;;;;;5045447;28;20231;-53
2022/07/07 05:39:06;;;;;;;6.28;4.03;;;;;;;;;;5045834;28;20228;-52
2022/07/07 05:41:33;;;;;;;5.00;4.33;;;;;;;;;;5028623;28;20251;-58
2022/07/07 05:44:00;;;;;;;4.87;4.47;;;;;;;;;;5027709;28;20257;-52
2022/07/07 05:46:26;;;;;;;5.50;4.33;;;;;;;;;;5030682;28;20232;-53
2022/07/07 05:48:52;;;;;;;5.13;4.53;;;;;;;;;;5036080;28;20702;-53
2022/07/07 05:51:19;;;;;;;5.10;4.60;;;;;;;;;;5042854;28;20231;-53
2022/07/07 05:53:45;;;;;;;6.13;5.17;;;;;;;;;;5052399;28;20236;-54
2022/07/07 05:56:11;;;;;;;5.13;4.63;;;;;;;;;;5038303;28;20632;-53
2022/07/07 05:58:40;;;;;;;5.93;4.65;;;;;;;;;;5043587;28;20240;-53
2022/07/07 06:01:06;;;;;;;5.07;4.57;;;;;;;;;;5030466;28;20231;-52
2022/07/07 06:03:32;;;;;;;4.67;4.13;;;;;;;;;;5027043;28;20247;-52
2022/07/07 06:05:59;;;;;;;4.53;4.23;;;;;;;;;;5031980;28;20228;-54
2022/07/07 06:08:25;;;;;;;4.93;4.53;;;;;;;;;;5032554;28;20877;-52
2022/07/07 06:10:51;;;;;;;5.50;5.00;;;;;;;;;;5031116;28;20243;-52
2022/07/07 06:13:18;;;;;;;5.22;4.82;;;;;;;;;;5025103;28;20356;-52
2022/07/07 06:15:45;;;;;;;6.05;5.03;;;;;;;;;;5026779;28;20766;-53
2022/07/07 06:18:12;;;;;;;5.87;5.27;;;;;;;;;;5025393;28;20246;-53
2022/07/07 06:20:38;;;;;;;5.77;5.20;;;;;;;;;;5024353;28;20552;-52
2022/07/07 06:23:05;;;;;;;5.85;5.20;;;;;;;;;;5037141;28;20303;-53
2022/07/07 06:25:31;;;;;;;6.10;5.60;;;;;;;;;;5022052;28;20237;-53
2022/07/07 06:27:57;;;;;;;5.65;4.97;;;;;;;;;;5023768;28;20854;-53
2022/07/07 06:30:25;;;;;;;6.95;5.25;;;;;;;;;;5031720;28;20444;-53
2022/07/07 06:32:52;;;;;;;6.50;6.00;;;;;;;;;;5035968;28;20236;-52
2022/07/07 06:35:20;;;;;;;6.07;4.40;;;;;;;;;;5027565;28;20624;-51
2022/07/07 06:37:46;;;;;;;5.32;4.93;;;;;;;;;;5027669;28;20676;-53
2022/07/07 06:40:13;;;;;;;4.83;4.50;;;;;;;;;;5025322;28;20334;-51
2022/07/07 06:42:39;;;;;;;6.13;5.63;;;;;;;;;;5024881;28;20233;-51
2022/07/07 06:45:06;;;;;;;5.03;4.63;;;;;;;;;;5036061;28;20738;-52
2022/07/07 06:47:33;;;;;;;4.97;4.57;;;;;;;;;;5041095;28;20319;-52
2022/07/07 06:50:01;;;;;;;5.10;4.60;;;;;;;;;;5040889;28;20243;-52
2022/07/07 06:52:27;;;;;;;5.28;4.85;;;;;;;;;;5042050;28;20233;-54
2022/07/07 06:54:53;;;;;;;5.00;4.60;;;;;;;;;;5044294;28;20614;-52
2022/07/07 06:57:20;;;;;;;4.47;4.18;;;;;;;;;;5047242;28;20236;-52
2022/07/07 06:59:46;;;;;;;4.93;4.53;;;;;;;;;;5046438;28;20228;-52
2022/07/07 07:02:12;;;;;;;4.32;4.00;;;;;;;;;;5035875;28;20235;-54
2022/07/07 07:04:39;;;;;;;4.60;4.22;;;;;;;;;;5052306;28;20239;-53
2022/07/07 07:07:06;;;;;;;4.35;3.85;;;;;;;;;;5034502;28;20231;-52
2022/07/07 07:09:33;;;;;;;4.10;3.40;;;;;;;;;;5039559;28;20611;-52
2022/07/07 07:11:59;;;;;;;4.18;3.88;;;;;;;;;;5036269;28;20237;-53
2022/07/07 07:14:25;;;;;;;4.20;3.90;;;;;;;;;;5045281;28;20245;-53
2022/07/07 07:16:52;;;;;;;3.40;3.20;;;;;;;;;;5042780;28;20240;-53
2022/07/07 07:19:18;;;;;;;4.88;4.47;;;;;;;;;;5021186;28;20239;-54
2022/07/07 07:21:44;;;;;;;4.13;3.83;;;;;;;;;;5028903;28;20236;-55
2022/07/07 07:24:13;;;;;;;3.95;3.65;;;;;;;;;;5029497;28;20232;-54
2022/07/07 07:26:39;;;;;;;4.40;4.00;;;;;;;;;;5046501;28;20251;-53
2022/07/07 07:29:05;;;;;;;7.85;3.47;;;;;;;;;;5038897;28;20231;-56
2022/07/07 07:31:31;;;;;;;4.05;3.75;;;;;;;;;;5049694;28;20231;-56
2022/07/07 07:33:58;;;;;;;5.15;4.65;;;;;;;;;;5028861;28;20320;-56
2022/07/07 07:36:24;;;;;;;4.30;3.75;;;;;;;;;;5025577;28;20690;-57
2022/07/07 07:38:51;;;;;;;4.40;4.10;;;;;;;;;;5022810;28;20236;-56
2022/07/07 07:41:20;;;;;;;4.28;3.97;;;;;;;;;;5026946;28;20228;-57
2022/07/07 07:43:46;;;;;;;4.93;4.55;;;;;;;;;;5023725;28;20240;-57
2022/07/07 07:46:12;;;;;;;5.47;5.07;;;;;;;;;;5023145;28;20239;-58
2022/07/07 07:48:39;;;;;;;6.45;5.93;;;;;;;;;;5022967;28;20734;-57
2022/07/07 07:51:06;;;;;;;5.45;5.05;;;;;;;;;;5016112;28;20236;-56
2022/07/07 07:53:32;;;;;;;5.55;5.05;;;;;;;;;;5021468;28;20730;-57
2022/07/07 07:55:58;;;;;;;5.18;4.72;;;;;;;;;;5012201;28;20229;-56
2022/07/07 07:58:26;;;;;;;4.60;4.28;;;;;;;;;;5023668;28;20239;-56
2022/07/07 08:00:53;;;;;;;5.20;4.90;;;;;;;;;;5019918;28;20224;-57
2022/07/07 08:03:19;;;;;;;6.18;4.35;;;;;;;;;;5023161;28;20256;-56
2022/07/07 08:05:45;;;;;;;4.80;4.50;;;;;;;;;;5021249;28;20240;-56
2022/07/07 08:08:12;;;;;;;4.40;4.10;;;;;;;;;;5018294;28;20232;-55
2022/07/07 08:10:38;;;;;;;5.30;4.80;;;;;;;;;;5017391;28;20241;-54
2022/07/07 08:13:05;;;;;;;4.63;4.32;;;;;;;;;;5019030;28;20721;-56
2022/07/07 08:15:33;;;;;;;5.57;4.93;;;;;;;;;;5015939;28;21015;-55
2022/07/07 08:17:59;;;;;;;5.18;4.70;;;;;;;;;;5022977;28;20243;-54
2022/07/07 08:20:26;;;;;;;5.22;4.82;;;;;;;;;;5018503;28;20237;-56
2022/07/07 08:22:52;;;;;;;5.45;5.03;;;;;;;;;;5018968;28;20232;-54
2022/07/07 08:25:21;;;;;;;4.95;4.65;;;;;;;;;;5015234;28;20241;-55
2022/07/07 08:27:48;;;;;;;5.05;4.55;;;;;;;;;;5020844;28;20707;-57
2022/07/07 08:30:14;;;;;;;5.50;5.10;;;;;;;;;;5011816;28;20459;-53
2022/07/07 08:32:45;;;;;;;4.95;4.65;;;;;;;;;;5020199;28;20233;-52
2022/07/07 08:35:12;;;;;;;4.97;4.55;;;;;;;;;;5020545;28;20240;-52
2022/07/07 08:37:38;;;;;;;4.03;3.72;;;;;;;;;;5017721;28;20359;-54
2022/07/07 08:40:05;;;;;;;5.35;5.00;;;;;;;;;;5008330;28;20451;-54
2022/07/07 08:42:32;;;;;;;10.02;9.13;;;;;;;;;;5021313;28;20702;-53
2022/07/07 08:44:58;;;;;;;4.72;3.65;;;;;;;;;;5020957;28;20236;-55
2022/07/07 08:47:25;;;;;;;4.10;3.80;;;;;;;;;;5018015;28;20243;-53
2022/07/07 08:49:53;;;;;;;3.88;3.58;;;;;;;;;;5032539;28;20250;-54
2022/07/07 08:52:20;;;;;;;3.50;3.30;;;;;;;;;;5032787;28;20236;-52
2022/07/07 08:54:47;;;;;;;4.00;3.70;;;;;;;;;;5027498;28;20281;-52
2022/07/07 08:57:13;;;;;;;10.38;8.63;;;;;;;;;;5023949;28;20753;-53
2022/07/07 08:59:40;;;;;;;4.72;4.43;;;;;;;;;;5020499;28;20236;-53
2022/07/07 09:02:08;;;;;;;4.13;3.85;;;;;;;;;;5026946;28;20235;-55
2022/07/07 09:04:35;;;;;;;3.65;3.35;;;;;;;;;;5021333;28;20352;-54
2022/07/07 09:07:04;;;;;;;3.95;3.67;;;;;;;;;;5025437;28;20231;-52
2022/07/07 09:09:41;;;;;;;3.55;3.35;;;;;;;;;;5027313;28;20233;-56
2022/07/07 09:12:08;;;;;;;3.65;3.45;;;;;;;;;;5019910;28;20568;-53
2022/07/07 09:14:36;;;;;;;3.63;3.42;;;;;;;;;;5021639;28;20240;-53
2022/07/07 09:17:03;;;;;;;3.92;3.67;;;;;;;;;;5015218;28;20256;-52
2022/07/07 09:19:30;;;;;;;3.47;3.28;;;;;;;;;;5020593;28;20229;-53
2022/07/07 09:21:56;;;;;;;16.40;14.65;;;;;;;;;;5023351;28;20496;-52
2022/07/07 09:24:24;;;;;;;3.78;3.47;;;;;;;;;;5022984;28;20236;-52
2022/07/07 09:26:52;;;;;;;3.80;3.50;;;;;;;;;;5018404;28;20232;-52
2022/07/07 09:29:19;;;;;;;2.83;2.63;;;;;;;;;;5023733;28;20326;-52
2022/07/07 09:31:53;;;;;;;3.83;3.55;;;;;;;;;;5020817;28;20239;-53
2022/07/07 09:34:19;;;;;;;3.78;3.38;;;;;;;;;;5014758;28;20247;-53
2022/07/07 09:39:40;;;;;;;4.15;3.85;;;;;;;;;;5020836;28;20239;-52
2022/07/07 09:42:17;;;;;;;3.63;3.42;;;;;;;;;;5027126;28;20242;-52
2022/07/07 09:44:44;;;;;;;3.70;3.50;;;;;;;;;;5020783;28;20241;-51
2022/07/07 09:47:10;;;;;;;3.72;3.53;;;;;;;;;;5019549;28;20232;-53
2022/07/07 09:49:41;;;;;;;3.88;3.63;;;;;;;;;;5022493;28;20231;-53
2022/07/07 09:52:14;;;;;;;5.95;5.28;;;;;;;;;;5022984;28;20216;-52
2022/07/07 09:54:47;;;;;;;4.43;4.13;;;;;;;;;;5026293;28;20243;-51
2022/07/07 09:57:14;;;;;;;4.28;3.97;;;;;;;;;;5021901;28;20243;-53
2022/07/07 09:59:41;;;;;;;3.95;3.65;;;;;;;;;;5023301;28;20244;-51
2022/07/07 10:02:12;;;;;;;3.88;3.63;;;;;;;;;;5036443;28;20317;-52
2022/07/07 10:04:38;;;;;;;4.10;3.67;;;;;;;;;;5042704;28;20232;-52
2022/07/07 10:07:05;;;;;;;3.63;3.33;;;;;;;;;;5045243;28;20231;-53
2022/07/07 10:09:31;;;;;;;4.20;3.90;;;;;;;;;;5042304;28;20228;-52
2022/07/07 10:11:59;;;;;;;4.22;3.75;;;;;;;;;;5034067;28;20228;-50
2022/07/07 10:14:27;;;;;;;3.75;3.53;;;;;;;;;;5040336;28;20290;-53
2022/07/07 10:16:54;;;;;;;3.65;3.45;;;;;;;;;;5030474;28;20239;-52
2022/07/07 10:19:21;;;;;;;4.43;4.13;;;;;;;;;;5042219;28;20235;-52
2022/07/07 10:21:49;;;;;;;4.30;4.00;;;;;;;;;;5042582;28;20426;-53
2022/07/07 10:24:16;;;;;;;4.20;3.90;;;;;;;;;;5048339;28;20248;-51
2022/07/07 10:26:43;;;;;;;3.58;3.38;;;;;;;;;;5043009;28;20263;-52
2022/07/07 10:29:11;;;;;;;4.35;4.05;;;;;;;;;;5033280;28;21006;-51
2022/07/07 10:31:38;;;;;;;4.35;4.07;;;;;;;;;;5040055;28;20250;-52
2022/07/07 10:34:05;;;;;;;4.60;4.25;;;;;;;;;;5036287;28;20232;-52
2022/07/07 10:36:49;;;;;;;4.38;4.07;;;;;;;;;;5034791;28;20232;-52
2022/07/07 10:39:16;;;;;;;4.43;4.13;;;;;;;;;;5041209;28;20228;-52
2022/07/07 10:41:51;;;;;;;4.28;3.88;;;;;;;;;;5046334;28;20239;-52
2022/07/07 10:44:19;;;;;;;3.97;3.67;;;;;;;;;;5045488;28;20239;-52
2022/07/07 10:46:57;;;;;;;5.25;3.90;;;;;;;;;;5039596;28;20257;-52
2022/07/07 10:49:36;;;;;;;3.63;3.42;;;;;;;;;;5036264;28;20231;-52
2022/07/07 10:52:05;;;;;;;4.25;3.95;;;;;;;;;;5033241;28;20698;-51
2022/07/07 10:54:33;;;;;;;4.13;3.83;;;;;;;;;;5036702;28;20244;-51
2022/07/07 10:57:19;;;;;;;3.35;3.15;;;;;;;;;;5037667;28;20235;-54
2022/07/07 11:00:06;;;;;;;4.25;4.00;;;;;;;;;;5038114;28;20323;-51
2022/07/07 11:02:33;;;;;;;4.45;4.15;;;;;;;;;;5041806;28;20560;-54
2022/07/07 11:05:00;;;;;;;3.85;3.42;;;;;;;;;;5037921;28;20581;-54
2022/07/07 11:07:28;;;;;;;5.40;4.88;;;;;;;;;;5044397;28;20240;-52
2022/07/07 11:09:58;;;;;;;4.45;4.10;;;;;;;;;;5042300;28;20223;-51
2022/07/07 11:12:34;;;;;;;4.93;4.53;;;;;;;;;;5035836;28;20290;-52
2022/07/07 11:15:16;;;;;;;4.05;3.75;;;;;;;;;;5041717;28;20319;-51
2022/07/07 11:17:43;;;;;;;4.32;4.03;;;;;;;;;;5044304;28;20642;-54
2022/07/07 11:20:14;;;;;;;4.68;4.38;;;;;;;;;;5046620;28;20793;-52
2022/07/07 11:22:45;;;;;;;5.13;4.72;;;;;;;;;;5046887;28;20799;-52
2022/07/07 11:25:11;;;;;;;4.40;4.10;;;;;;;;;;5039795;28;20258;-51
2022/07/07 11:27:38;;;;;;;5.82;5.43;;;;;;;;;;5036788;28;20247;-52
2022/07/07 11:30:05;;;;;;;5.78;4.82;;;;;;;;;;5036742;28;20224;-52
2022/07/07 11:32:35;;;;;;;5.28;4.93;;;;;;;;;;5045883;28;20231;-52
2022/07/07 11:35:05;;;;;;;5.90;5.28;;;;;;;;;;5046872;28;20236;-51
2022/07/07 11:37:32;;;;;;;6.20;5.80;;;;;;;;;;5037959;28;20737;-52
2022/07/07 11:39:58;;;;;;;6.55;6.05;;;;;;;;;;5037486;28;20239;-52
2022/07/07 11:42:25;;;;;;;5.85;5.35;;;;;;;;;;5037244;28;20239;-51
2022/07/07 11:44:51;;;;;;;6.38;5.85;;;;;;;;;;5038365;28;20428;-52
2022/07/07 11:47:18;;;;;;;5.82;5.43;;;;;;;;;;5047740;28;20666;-53
2022/07/07 11:49:45;;;;;;;6.85;6.25;;;;;;;;;;5044768;28;20285;-53
2022/07/07 11:52:16;;;;;;;7.50;6.95;;;;;;;;;;5043754;28;20251;-52
2022/07/07 11:54:47;;;;;;;7.50;6.90;;;;;;;;;;5041786;28;20418;-52
2022/07/07 11:57:25;;;;;;;6.72;6.13;;;;;;;;;;5038603;28;20326;-52
2022/07/07 11:59:51;;;;;;;8.02;7.43;;;;;;;;;;5037365;28;20420;-52
2022/07/07 12:02:18;;;;;;;8.07;7.28;;;;;;;;;;5044617;28;20232;-52
2022/07/07 12:04:45;;;;;;;6.82;6.07;;;;;;;;;;5039966;28;20322;-51
2022/07/07 12:07:11;;;;;;;7.07;6.38;;;;;;;;;;5035902;28;20227;-51
2022/07/07 12:09:45;;;;;;;7.28;6.78;;;;;;;;;;5038300;28;20239;-51
2022/07/07 12:12:16;;;;;;;7.35;6.85;;;;;;;;;;5040690;28;20231;-51
2022/07/07 12:14:43;;;;;;;7.30;6.80;;;;;;;;;;5034126;28;20685;-51
2022/07/07 12:17:09;;;;;;;6.38;5.97;;;;;;;;;;5032954;28;20228;-53
2022/07/07 12:19:45;;;;;;;5.18;4.78;;;;;;;;;;5030020;28;20231;-53
2022/07/07 12:22:12;;;;;;;4.90;4.50;;;;;;;;;;5019502;28;20306;-53
2022/07/07 12:24:39;;;;;;;4.70;4.40;;;;;;;;;;5019976;28;20244;-52
2022/07/07 12:27:16;;;;;;;4.07;3.78;;;;;;;;;;5025268;28;20344;-52
2022/07/07 12:29:57;;;;;;;4.53;4.22;;;;;;;;;;5018044;28;20540;-52
2022/07/07 12:32:24;;;;;;;4.35;4.05;;;;;;;;;;5014718;28;20236;-52
2022/07/07 12:34:50;;;;;;;4.40;4.00;;;;;;;;;;5023146;28;20322;-50
2022/07/07 12:37:16;;;;;;;3.15;2.95;;;;;;;;;;5020058;28;20236;-51
2022/07/07 12:39:44;;;;;;;4.40;4.00;;;;;;;;;;5034573;28;20232;-51
2022/07/07 12:42:10;;;;;;;4.03;3.72;;;;;;;;;;5042033;28;20235;-52
2022/07/07 12:44:37;;;;;;;3.75;3.42;;;;;;;;;;5037048;28;20609;-52
2022/07/07 12:47:03;;;;;;;2.80;2.60;;;;;;;;;;5036171;28;20231;-52
2022/07/07 12:49:29;;;;;;;2.47;2.28;;;;;;;;;;5035050;28;20228;-50
2022/07/07 12:51:56;;;;;;;2.85;2.65;;;;;;;;;;5042042;28;20603;-51
2022/07/07 12:54:23;;;;;;;3.65;3.40;;;;;;;;;;5029107;28;20237;-51
2022/07/07 12:56:58;;;;;;;3.70;3.47;;;;;;;;;;5031491;28;20232;-52
2022/07/07 12:59:25;;;;;;;3.17;2.97;;;;;;;;;;5043525;28;20310;-51
2022/07/07 13:01:53;;;;;;;3.33;3.13;;;;;;;;;;5042061;28;20259;-52
2022/07/07 13:04:19;;;;;;;4.10;3.53;;;;;;;;;;5036659;28;20699;-52
2022/07/07 13:06:46;;;;;;;5.80;3.40;;;;;;;;;;5043560;28;20242;-52
2022/07/07 13:09:13;;;;;;;3.38;3.08;;;;;;;;;;5042512;28;20323;-52
2022/07/07 13:11:39;;;;;;;3.80;3.08;;;;;;;;;;5022134;28;20240;-52
2022/07/07 13:14:07;;;;;;;3.28;3.08;;;;;;;;;;5018785;28;20619;-53
2022/07/07 13:16:33;;;;;;;3.83;3.63;;;;;;;;;;5017666;28;20223;-51
2022/07/07 13:18:59;;;;;;;3.95;3.67;;;;;;;;;;5034361;28;20235;-53
2022/07/07 13:21:26;;;;;;;3.85;3.65;;;;;;;;;;5033679;28;20231;-52
2022/07/07 13:23:52;;;;;;;3.55;3.33;;;;;;;;;;5041026;28;20335;-52
2022/07/07 13:26:19;;;;;;;3.22;3.03;;;;;;;;;;5031936;28;20238;-51
2022/07/07 13:28:46;;;;;;;3.85;3.60;;;;;;;;;;5029519;28;20239;-53
2022/07/07 13:31:14;;;;;;;3.92;3.63;;;;;;;;;;5030512;28;20232;-53
2022/07/07 13:33:40;;;;;;;4.30;4.00;;;;;;;;;;5021116;28;20447;-52
2022/07/07 13:36:06;;;;;;;5.63;4.20;;;;;;;;;;5018902;28;20228;-54
2022/07/07 13:38:33;;;;;;;5.70;5.30;;;;;;;;;;5041899;28;20227;-51
2022/07/07 13:40:59;;;;;;;4.35;3.95;;;;;;;;;;5047935;28;20236;-52
2022/07/07 13:43:25;;;;;;;4.47;4.07;;;;;;;;;;5050054;28;20231;-51
2022/07/07 13:45:52;;;;;;;5.43;3.53;;;;;;;;;;5036302;28;20240;-52
2022/07/07 13:48:20;;;;;;;3.30;3.10;;;;;;;;;;5030126;28;20616;-52
2022/07/07 13:50:47;;;;;;;3.08;2.78;;;;;;;;;;5035131;28;20231;-52
2022/07/07 13:53:13;;;;;;;2.50;2.30;;;;;;;;;;5041417;28;20231;-52
2022/07/07 13:55:39;;;;;;;2.03;1.92;;;;;;;;;;5031583;28;20241;-51
2022/07/07 13:58:06;;;;;;;1.83;1.73;;;;;;;;;;5030271;28;20228;-51
2022/07/07 14:00:33;;;;;;;2.38;2.05;;;;;;;;;;5028456;28;20242;-52
2022/07/07 14:02:59;;;;;;;1.65;1.55;;;;;;;;;;5025863;28;20258;-52
2022/07/07 14:05:28;;;;;;;1.67;1.58;;;;;;;;;;5019995;28;20228;-52
2022/07/07 14:07:54;;;;;;;1.70;1.60;;;;;;;;;;5024718;28;20747;-52
2022/07/07 14:10:20;;;;;;;4.50;2.78;;;;;;;;;;5026656;28;20248;-50
2022/07/07 14:12:47;;;;;;;1.70;1.60;;;;;;;;;;5026524;28;20306;-51
2022/07/07 14:15:13;;;;;;;1.83;1.73;;;;;;;;;;5017533;28;20236;-51
2022/07/07 14:17:40;;;;;;;1.73;1.63;;;;;;;;;;5032036;28;20239;-52
2022/07/07 14:20:07;;;;;;;2.38;1.63;;;;;;;;;;5036508;28;20223;-51
2022/07/07 14:22:35;;;;;;;1.67;1.58;;;;;;;;;;5031373;28;20310;-52
2022/07/07 14:25:01;;;;;;;2.60;1.52;;;;;;;;;;5040330;28;20258;-51
2022/07/07 14:27:30;;;;;;;2.55;1.60;;;;;;;;;;5043555;28;20232;-52
2022/07/07 14:29:58;;;;;;;1.65;1.55;;;;;;;;;;5044397;28;20354;-53
2022/07/07 14:32:25;;;;;;;1.80;1.40;;;;;;;;;;5039735;28;20690;-52
2022/07/07 14:34:51;;;;;;;2.75;1.50;;;;;;;;;;5047531;28;20239;-53
2022/07/07 14:37:18;;;;;;;1.48;1.30;;;;;;;;;;5046329;28;20231;-51
2022/07/07 14:39:45;;;;;;;1.17;1.08;;;;;;;;;;5034728;28;20265;-51
2022/07/07 14:42:12;;;;;;;1.30;1.20;;;;;;;;;;5034355;28;20232;-54
2022/07/07 14:44:38;;;;;;;1.27;1.17;;;;;;;;;;5048595;28;20238;-52
2022/07/07 14:47:05;;;;;;;1.70;1.60;;;;;;;;;;5049607;28;20236;-50